Time;durP1;ratioP1;P1;durP2;ratioP2;P2;SDS_P1;SDS_P2;PMS_P1;PMS_P2;Temp;Humidity;BMP_temperature;BMP_pressure;BME280_temperature;BME280_humidity;BME280_pressure;Samples;Min_cycle;Max_cycle;Signal;HPM_P1;HPM_P2
2021/12/29 00:00:23;;;;;;;;;;;;;;;;;;4927943;28;19929;-81
2021/12/29 00:02:49;;;;;;;;;;;;;;;;;;4921603;28;20029;-81
2021/12/29 00:05:15;;;;;;;;;;;;;;;;;;4941707;28;20012;-81
2021/12/29 00:07:41;;;;;;;;;;;;;;;;;;4925884;28;19930;-81
2021/12/29 00:10:08;;;;;;;;;;;;;;;;;;4927707;28;20382;-81
2021/12/29 00:12:40;;;;;;;;;;;;;;;;;;4926134;28;19961;-81
2021/12/29 00:15:09;;;;;;;;;;;;;;;;;;4915717;29;20330;-81
2021/12/29 00:17:35;;;;;;;;;;;;;;;;;;4912569;28;19918;-81
2021/12/29 00:20:01;;;;;;;;;;;;;;;;;;4913626;28;19966;-81
2021/12/29 00:22:27;;;;;;;;;;;;;;;;;;4931933;28;19988;-81
2021/12/29 00:24:53;;;;;;;;;;;;;;;;;;4931276;28;20433;-81
2021/12/29 00:27:19;;;;;;;;;;;;;;;;;;4915198;28;19930;-81
2021/12/29 00:29:45;;;;;;;;;;;;;;;;;;4918100;28;19950;-81
2021/12/29 00:32:11;;;;;;;;;;;;;;;;;;4939538;28;20009;-81
2021/12/29 00:34:37;;;;;;;;;;;;;;;;;;4931661;28;19925;-81
2021/12/29 00:37:03;;;;;;;;;;;;;;;;;;4917822;28;19922;-81
2021/12/29 00:39:29;;;;;;;;;;;;;;;;;;4904000;28;20034;-81
2021/12/29 00:41:55;;;;;;;;;;;;;;;;;;4923231;28;19922;-80
2021/12/29 00:44:21;;;;;;;;;;;;;;;;;;4909146;28;19926;-80
2021/12/29 00:46:52;;;;;;;;;;;;;;;;;;4934669;28;19990;-81
2021/12/29 00:49:18;;;;;;;;;;;;;;;;;;4938345;28;20001;-80
2021/12/29 00:51:44;;;;;;;;;;;;;;;;;;4916977;28;19933;-81
2021/12/29 00:54:12;;;;;;;;;;;;;;;;;;4919679;28;19926;-80
2021/12/29 00:56:38;;;;;;;;;;;;;;;;;;4928371;28;19965;-81
2021/12/29 00:59:04;;;;;;;;;;;;;;;;;;4939196;28;20282;-81
2021/12/29 01:01:30;;;;;;;;;;;;;;;;;;4929359;28;20506;-81
2021/12/29 01:03:56;;;;;;;;;;;;;;;;;;4929515;28;19934;-81
2021/12/29 01:06:22;;;;;;;;;;;;;;;;;;4925197;28;19925;-81
2021/12/29 01:08:49;;;;;;;;;;;;;;;;;;4929858;28;19937;-81
2021/12/29 01:11:15;;;;;;;;;;;;;;;;;;4925862;28;20022;-81
2021/12/29 01:13:47;;;;;;;;;;;;;;;;;;4915217;28;20401;-82
2021/12/29 01:16:36;;;;;;;;;;;;;;;;;;4931061;28;19932;-81
2021/12/29 01:19:02;;;;;;;;;;;;;;;;;;4932124;28;20018;-81
2021/12/29 01:21:28;;;;;;;;;;;;;;;;;;4937348;28;19934;-80
2021/12/29 01:23:54;;;;;;;;;;;;;;;;;;4936163;28;20329;-80
2021/12/29 01:26:20;;;;;;;;;;;;;;;;;;4911315;28;20297;-82
2021/12/29 01:28:46;;;;;;;;;;;;;;;;;;4914185;28;19929;-82
2021/12/29 01:31:15;;;;;;;;;;;;;;;;;;4916413;28;19922;-83
2021/12/29 01:33:41;;;;;;;;;;;;;;;;;;4942170;28;20381;-81
2021/12/29 01:36:07;;;;;;;;;;;;;;;;;;4923022;28;19978;-82
2021/12/29 01:38:36;;;;;;;;;;;;;;;;;;4937846;28;20577;-81
2021/12/29 01:41:02;;;;;;;;;;;;;;;;;;4925516;28;19950;-82
2021/12/29 01:43:28;;;;;;;;;;;;;;;;;;4922276;28;20285;-81
2021/12/29 01:45:54;;;;;;;;;;;;;;;;;;4931092;28;19919;-81
2021/12/29 01:48:20;;;;;;;;;;;;;;;;;;4926964;28;19941;-82
2021/12/29 01:50:50;;;;;;;;;;;;;;;;;;4922158;28;19922;-81
2021/12/29 01:53:23;;;;;;;;;;;;;;;;;;4936378;28;20413;-81
2021/12/29 01:55:49;;;;;;;;;;;;;;;;;;4928378;28;20370;-81
2021/12/29 01:58:15;;;;;;;;;;;;;;;;;;4919726;28;20326;-81
2021/12/29 02:00:41;;;;;;;;;;;;;;;;;;4927550;28;19918;-81
2021/12/29 02:03:08;;;;;;;;;;;;;;;;;;4926016;28;19926;-80
2021/12/29 02:05:34;;;;;;;;;;;;;;;;;;4920525;28;19922;-81
2021/12/29 02:08:00;;;;;;;;;;;;;;;;;;4925959;28;19927;-81
2021/12/29 02:10:31;;;;;;;;;;;;;;;;;;4934428;28;19923;-82
2021/12/29 02:12:57;;;;;;;;;;;;;;;;;;4922640;28;19926;-81
2021/12/29 02:15:23;;;;;;;;;;;;;;;;;;4926895;28;19922;-81
2021/12/29 02:17:49;;;;;;;;;;;;;;;;;;4925872;28;20025;-79
2021/12/29 02:20:18;;;;;;;;;;;;;;;;;;4919494;28;20382;-79
2021/12/29 02:22:48;;;;;;;;;;;;;;;;;;4930528;28;19926;-79
2021/12/29 02:27:43;;;;;;;;;;;;;;;;;;4929741;28;19926;-82
2021/12/29 02:30:09;;;;;;;;;;;;;;;;;;4913577;29;19922;-81
2021/12/29 02:32:38;;;;;;;;;;;;;;;;;;4924201;28;19933;-81
2021/12/29 02:35:04;;;;;;;;;;;;;;;;;;4926793;28;19922;-81
2021/12/29 02:37:30;;;;;;;;;;;;;;;;;;4938411;28;21298;-81
2021/12/29 02:39:56;;;;;;;;;;;;;;;;;;4926301;28;20006;-81
2021/12/29 02:42:25;;;;;;;;;;;;;;;;;;4904486;28;20053;-81
2021/12/29 02:44:52;;;;;;;;;;;;;;;;;;4926167;28;19926;-81
2021/12/29 02:47:18;;;;;;;;;;;;;;;;;;4918724;28;20013;-81
2021/12/29 02:49:45;;;;;;;;;;;;;;;;;;4925458;28;19926;-82
2021/12/29 02:52:13;;;;;;;;;;;;;;;;;;4920371;28;19933;-80
2021/12/29 02:54:39;;;;;;;;;;;;;;;;;;4918027;28;20348;-81
2021/12/29 02:57:05;;;;;;;;;;;;;;;;;;4938386;28;20348;-81
2021/12/29 02:59:31;;;;;;;;;;;;;;;;;;4918921;28;20560;-81
2021/12/29 03:01:57;;;;;;;;;;;;;;;;;;4924352;28;20481;-79
2021/12/29 03:04:23;;;;;;;;;;;;;;;;;;4926622;28;20021;-81
2021/12/29 03:06:49;;;;;;;;;;;;;;;;;;4920915;28;20334;-81
2021/12/29 03:09:16;;;;;;;;;;;;;;;;;;4916161;28;19922;-81
2021/12/29 03:11:42;;;;;;;;;;;;;;;;;;4913114;28;19949;-81
2021/12/29 03:14:08;;;;;;;;;;;;;;;;;;4926628;28;20298;-80
2021/12/29 03:16:34;;;;;;;;;;;;;;;;;;4923139;28;19927;-80
2021/12/29 03:19:02;;;;;;;;;;;;;;;;;;4924380;28;20261;-80
2021/12/29 03:21:28;;;;;;;;;;;;;;;;;;4922588;28;19922;-80
2021/12/29 03:23:54;;;;;;;;;;;;;;;;;;4930620;28;19949;-80
2021/12/29 03:26:20;;;;;;;;;;;;;;;;;;4925878;28;19925;-80
2021/12/29 03:28:46;;;;;;;;;;;;;;;;;;4927163;28;20008;-81
2021/12/29 03:31:14;;;;;;;;;;;;;;;;;;4931598;28;19982;-80
2021/12/29 03:33:40;;;;;;;;;;;;;;;;;;4908838;28;19925;-81
2021/12/29 03:36:06;;;;;;;;;;;;;;;;;;4929105;28;19930;-81
2021/12/29 03:38:32;;;;;;;;;;;;;;;;;;4867824;28;20444;-81
2021/12/29 03:40:58;;;;;;;;;;;;;;;;;;4939849;28;19926;-80
2021/12/29 03:43:24;;;;;;;;;;;;;;;;;;4935976;28;19926;-81
2021/12/29 03:45:51;;;;;;;;;;;;;;;;;;4927998;28;19918;-80
2021/12/29 03:48:17;;;;;;;;;;;;;;;;;;4927153;28;19946;-80
2021/12/29 03:50:43;;;;;;;;;;;;;;;;;;4931549;28;19953;-80
2021/12/29 03:53:13;;;;;;;;;;;;;;;;;;4923813;28;19984;-81
2021/12/29 03:55:39;;;;;;;;;;;;;;;;;;4940779;28;19935;-80
2021/12/29 03:58:05;;;;;;;;;;;;;;;;;;4926905;28;19945;-81
2021/12/29 04:00:31;;;;;;;;;;;;;;;;;;4923625;28;20013;-80
2021/12/29 04:02:57;;;;;;;;;;;;;;;;;;4931034;28;19941;-80
2021/12/29 04:05:23;;;;;;;;;;;;;;;;;;4936208;28;19922;-80
2021/12/29 04:07:49;;;;;;;;;;;;;;;;;;4942708;28;19922;-81
2021/12/29 04:10:15;;;;;;;;;;;;;;;;;;4906810;28;19929;-81
2021/12/29 04:12:41;;;;;;;;;;;;;;;;;;4924493;28;19934;-80
2021/12/29 04:15:07;;;;;;;;;;;;;;;;;;4937834;28;19925;-81
2021/12/29 04:17:37;;;;;;;;;;;;;;;;;;4926257;28;19918;-81
2021/12/29 04:22:48;;;;;;;;;;;;;;;;;;4930396;28;19974;-80
2021/12/29 04:25:14;;;;;;;;;;;;;;;;;;4928061;28;20394;-80
2021/12/29 04:27:40;;;;;;;;;;;;;;;;;;4926595;28;20021;-81
2021/12/29 04:30:06;;;;;;;;;;;;;;;;;;4928743;28;19958;-80
2021/12/29 04:32:32;;;;;;;;;;;;;;;;;;4919324;28;20065;-80
2021/12/29 04:34:58;;;;;;;;;;;;;;;;;;4926452;28;19921;-80
2021/12/29 04:37:24;;;;;;;;;;;;;;;;;;4909605;28;19922;-80
2021/12/29 04:39:49;;;;;;;;;;;;;;;;;;4919499;28;19949;-80
2021/12/29 04:42:15;;;;;;;;;;;;;;;;;;4923454;28;20017;-80
2021/12/29 04:44:41;;;;;;;;;;;;;;;;;;4929000;28;20009;-81
2021/12/29 04:47:08;;;;;;;;;;;;;;;;;;4926261;28;19963;-80
2021/12/29 04:49:40;;;;;;;;;;;;;;;;;;4910372;28;19923;-80
2021/12/29 04:52:06;;;;;;;;;;;;;;;;;;4926220;28;19915;-81
2021/12/29 04:54:32;;;;;;;;;;;;;;;;;;4930614;28;20291;-81
2021/12/29 04:56:58;;;;;;;;;;;;;;;;;;4929783;28;19969;-80
2021/12/29 04:59:24;;;;;;;;;;;;;;;;;;4927255;28;19927;-80
2021/12/29 05:01:50;;;;;;;;;;;;;;;;;;4926011;28;19915;-81
2021/12/29 05:04:30;;;;;;;;;;;;;;;;;;4926924;28;19927;-80
2021/12/29 05:09:41;;;;;;;;;;;;;;;;;;4937296;28;20338;-80
2021/12/29 05:12:07;;;;;;;;;;;;;;;;;;4928085;28;19927;-81
2021/12/29 05:14:33;;;;;;;;;;;;;;;;;;4913676;28;20064;-81
2021/12/29 05:16:59;;;;;;;;;;;;;;;;;;4930037;28;20432;-81
2021/12/29 05:19:25;;;;;;;;;;;;;;;;;;4928567;28;19926;-80
2021/12/29 05:21:51;;;;;;;;;;;;;;;;;;4933453;28;19926;-78
2021/12/29 05:24:17;;;;;;;;;;;;;;;;;;4947091;28;19906;-80
2021/12/29 05:26:43;;;;;;;;;;;;;;;;;;4942723;29;19926;-79
2021/12/29 05:29:10;;;;;;;;;;;;;;;;;;4941697;28;19922;-79
2021/12/29 05:31:36;;;;;;;;;;;;;;;;;;4940697;29;19914;-79
2021/12/29 05:34:02;;;;;;;;;;;;;;;;;;4959163;28;19919;-80
2021/12/29 05:36:28;;;;;;;;;;;;;;;;;;4951661;28;19955;-79
2021/12/29 05:38:55;;;;;;;;;;;;;;;;;;4961432;28;19972;-79
2021/12/29 05:41:21;;;;;;;;;;;;;;;;;;4941944;28;19951;-78
2021/12/29 05:43:47;;;;;;;;;;;;;;;;;;4949847;28;19970;-79
2021/12/29 05:46:13;;;;;;;;;;;;;;;;;;4955287;28;19923;-79
2021/12/29 05:48:39;;;;;;;;;;;;;;;;;;4973446;28;19926;-79
2021/12/29 05:51:05;;;;;;;;;;;;;;;;;;4946277;29;19906;-79
2021/12/29 05:53:31;;;;;;;;;;;;;;;;;;4943529;28;20458;-79
2021/12/29 05:55:57;;;;;;;;;;;;;;;;;;4943247;28;19922;-79
2021/12/29 05:58:23;;;;;;;;;;;;;;;;;;4950357;28;20295;-79
2021/12/29 06:00:49;;;;;;;;;;;;;;;;;;4953477;28;19918;-79
2021/12/29 06:03:15;;;;;;;;;;;;;;;;;;4964622;28;19989;-79
2021/12/29 06:05:41;;;;;;;;;;;;;;;;;;4945479;28;20350;-80
2021/12/29 06:08:07;;;;;;;;;;;;;;;;;;4947723;28;19934;-78
2021/12/29 06:10:33;;;;;;;;;;;;;;;;;;4944232;28;19922;-79
2021/12/29 06:12:59;;;;;;;;;;;;;;;;;;4941439;28;19918;-78
2021/12/29 06:15:26;;;;;;;;;;;;;;;;;;4926710;28;19922;-82
2021/12/29 06:17:52;;;;;;;;;;;;;;;;;;4931828;28;19972;-82
2021/12/29 06:20:18;;;;;;;;;;;;;;;;;;4911947;28;19919;-82
2021/12/29 06:22:44;;;;;;;;;;;;;;;;;;4929200;28;20848;-82
2021/12/29 06:25:10;;;;;;;;;;;;;;;;;;4916167;28;19927;-82
2021/12/29 06:27:36;;;;;;;;;;;;;;;;;;4929460;28;19930;-81
2021/12/29 06:30:02;;;;;;;;;;;;;;;;;;4919528;28;19918;-82
2021/12/29 06:32:28;;;;;;;;;;;;;;;;;;4925735;28;19922;-82
2021/12/29 06:34:54;;;;;;;;;;;;;;;;;;4928639;28;19923;-82
2021/12/29 06:37:20;;;;;;;;;;;;;;;;;;4924237;28;19923;-82
2021/12/29 06:39:46;;;;;;;;;;;;;;;;;;4940836;28;19923;-82
2021/12/29 06:42:12;;;;;;;;;;;;;;;;;;4923276;28;20358;-82
2021/12/29 06:44:38;;;;;;;;;;;;;;;;;;4930249;28;19926;-82
2021/12/29 06:47:04;;;;;;;;;;;;;;;;;;4915745;29;20069;-82
2021/12/29 06:49:30;;;;;;;;;;;;;;;;;;4924303;28;21084;-82
2021/12/29 06:51:56;;;;;;;;;;;;;;;;;;4915990;28;19919;-82
2021/12/29 06:54:22;;;;;;;;;;;;;;;;;;4911883;28;20341;-82
2021/12/29 06:56:48;;;;;;;;;;;;;;;;;;4928569;28;19925;-82
2021/12/29 06:59:14;;;;;;;;;;;;;;;;;;4911605;28;20258;-82
2021/12/29 07:01:40;;;;;;;;;;;;;;;;;;4925463;28;19915;-82
2021/12/29 07:04:06;;;;;;;;;;;;;;;;;;4926912;28;19965;-82
2021/12/29 07:06:32;;;;;;;;;;;;;;;;;;4910085;28;19925;-81
2021/12/29 07:08:58;;;;;;;;;;;;;;;;;;4913099;28;19926;-82
2021/12/29 07:11:24;;;;;;;;;;;;;;;;;;4914445;28;19927;-81
2021/12/29 07:13:51;;;;;;;;;;;;;;;;;;4927813;28;19934;-82
2021/12/29 07:16:17;;;;;;;;;;;;;;;;;;4911962;28;19926;-82
2021/12/29 07:18:43;;;;;;;;;;;;;;;;;;4923468;28;19952;-82
2021/12/29 07:21:09;;;;;;;;;;;;;;;;;;4928596;28;19993;-82
2021/12/29 07:23:35;;;;;;;;;;;;;;;;;;4916537;29;19918;-81
2021/12/29 07:26:01;;;;;;;;;;;;;;;;;;4922891;28;19994;-82
2021/12/29 07:28:27;;;;;;;;;;;;;;;;;;4939559;28;19922;-82
2021/12/29 07:30:53;;;;;;;;;;;;;;;;;;4913034;28;19934;-82
2021/12/29 07:33:19;;;;;;;;;;;;;;;;;;4928260;28;19929;-82
2021/12/29 07:35:45;;;;;;;;;;;;;;;;;;4914545;28;20341;-81
2021/12/29 07:38:11;;;;;;;;;;;;;;;;;;4910573;28;19929;-82
2021/12/29 07:40:38;;;;;;;;;;;;;;;;;;4924312;28;19930;-82
2021/12/29 07:43:04;;;;;;;;;;;;;;;;;;4914094;28;20290;-82
2021/12/29 07:45:31;;;;;;;;;;;;;;;;;;4929105;28;21120;-81
2021/12/29 07:47:57;;;;;;;;;;;;;;;;;;4920080;28;19952;-82
2021/12/29 07:50:23;;;;;;;;;;;;;;;;;;4916075;28;19930;-82
2021/12/29 07:52:49;;;;;;;;;;;;;;;;;;4923649;28;19922;-82
2021/12/29 07:55:15;;;;;;;;;;;;;;;;;;4910454;28;19926;-82
2021/12/29 07:57:42;;;;;;;;;;;;;;;;;;4927566;28;20017;-82
2021/12/29 08:00:08;;;;;;;;;;;;;;;;;;4933735;28;19954;-82
2021/12/29 08:02:35;;;;;;;;;;;;;;;;;;4923509;28;20291;-82
2021/12/29 08:05:03;;;;;;;;;;;;;;;;;;4920925;28;19937;-82
2021/12/29 08:07:37;;;;;;;;;;;;;;;;;;4928746;28;19923;-82
2021/12/29 08:10:04;;;;;;;;;;;;;;;;;;4931500;28;19962;-82
2021/12/29 08:12:30;;;;;;;;;;;;;;;;;;4927368;28;20919;-82
2021/12/29 08:14:56;;;;;;;;;;;;;;;;;;4934230;28;20089;-81
2021/12/29 08:17:22;;;;;;;;;;;;;;;;;;4926137;28;20010;-82
2021/12/29 08:19:50;;;;;;;;;;;;;;;;;;4930319;28;19954;-82
2021/12/29 08:22:16;;;;;;;;;;;;;;;;;;4926406;28;20247;-81
2021/12/29 08:24:48;;;;;;;;;;;;;;;;;;4928032;28;19925;-82
2021/12/29 08:27:15;;;;;;;;;;;;;;;;;;4928001;28;20325;-82
2021/12/29 08:29:42;;;;;;;;;;;;;;;;;;4933726;28;19929;-83
2021/12/29 08:32:08;;;;;;;;;;;;;;;;;;4931487;28;20022;-82
2021/12/29 08:34:35;;;;;;;;;;;;;;;;;;4925388;28;20009;-82
2021/12/29 08:37:02;;;;;;;;;;;;;;;;;;4925599;28;19923;-82
2021/12/29 08:39:29;;;;;;;;;;;;;;;;;;4923160;28;19923;-82
2021/12/29 08:41:55;;;;;;;;;;;;;;;;;;4930384;28;19969;-82
2021/12/29 08:44:21;;;;;;;;;;;;;;;;;;4928637;28;20401;-82
2021/12/29 08:46:51;;;;;;;;;;;;;;;;;;4933572;28;19952;-82
2021/12/29 08:49:18;;;;;;;;;;;;;;;;;;4927604;28;19945;-82
2021/12/29 08:51:48;;;;;;;;;;;;;;;;;;4945609;28;19918;-82
2021/12/29 08:54:15;;;;;;;;;;;;;;;;;;4926991;28;20034;-82
2021/12/29 08:56:45;;;;;;;;;;;;;;;;;;4919161;28;19918;-82
2021/12/29 08:59:13;;;;;;;;;;;;;;;;;;4932598;28;20029;-81
2021/12/29 09:01:40;;;;;;;;;;;;;;;;;;4930331;28;19985;-81
2021/12/29 09:04:07;;;;;;;;;;;;;;;;;;4925261;28;19923;-81
2021/12/29 09:06:49;;;;;;;;;;;;;;;;;;4925437;28;19919;-81
2021/12/29 09:09:16;;;;;;;;;;;;;;;;;;4937088;28;19969;-81
2021/12/29 09:11:42;;;;;;;;;;;;;;;;;;4939266;28;19933;-81
2021/12/29 09:14:08;;;;;;;;;;;;;;;;;;4927576;28;19927;-82
2021/12/29 09:16:37;;;;;;;;;;;;;;;;;;4927967;28;20008;-81
2021/12/29 09:19:04;;;;;;;;;;;;;;;;;;4926896;28;20400;-81
2021/12/29 09:21:33;;;;;;;;;;;;;;;;;;4922160;28;20802;-81
2021/12/29 09:24:00;;;;;;;;;;;;;;;;;;4930137;28;20338;-81
2021/12/29 09:26:26;;;;;;;;;;;;;;;;;;4929417;28;20405;-81
2021/12/29 09:28:59;;;;;;;;;;;;;;;;;;4929518;28;19926;-82
2021/12/29 09:31:29;;;;;;;;;;;;;;;;;;4924766;28;20127;-81
2021/12/29 09:33:56;;;;;;;;;;;;;;;;;;4927050;28;19933;-81
2021/12/29 09:36:26;;;;;;;;;;;;;;;;;;4917967;28;20018;-81
2021/12/29 09:38:52;;;;;;;;;;;;;;;;;;4929608;28;19918;-81
2021/12/29 09:41:18;;;;;;;;;;;;;;;;;;4925587;28;19936;-81
2021/12/29 09:43:44;;;;;;;;;;;;;;;;;;4925912;28;19918;-81
2021/12/29 09:46:11;;;;;;;;;;;;;;;;;;4925800;28;19926;-81
2021/12/29 09:48:40;;;;;;;;;;;;;;;;;;4943172;28;19923;-81
2021/12/29 09:51:11;;;;;;;;;;;;;;;;;;4931696;28;19918;-82
2021/12/29 09:53:46;;;;;;;;;;;;;;;;;;4930176;28;19965;-82
2021/12/29 09:56:12;;;;;;;;;;;;;;;;;;4909784;28;19918;-82
2021/12/29 09:58:39;;;;;;;;;;;;;;;;;;4930477;28;19918;-82
2021/12/29 10:01:05;;;;;;;;;;;;;;;;;;4926482;28;19929;-81
2021/12/29 10:03:31;;;;;;;;;;;;;;;;;;4926574;28;22040;-81
2021/12/29 10:05:57;;;;;;;;;;;;;;;;;;4927044;28;19975;-81
2021/12/29 10:08:24;;;;;;;;;;;;;;;;;;4919971;28;20405;-82
2021/12/29 10:10:50;;;;;;;;;;;;;;;;;;4913184;28;19918;-82
2021/12/29 10:13:17;;;;;;;;;;;;;;;;;;4934748;28;20397;-82
2021/12/29 10:15:44;;;;;;;;;;;;;;;;;;4927173;28;19957;-82
2021/12/29 10:18:10;;;;;;;;;;;;;;;;;;4925971;28;19925;-82
2021/12/29 10:20:37;;;;;;;;;;;;;;;;;;4926730;28;19926;-81
2021/12/29 10:23:03;;;;;;;;;;;;;;;;;;4923969;28;19949;-81
2021/12/29 10:25:30;;;;;;;;;;;;;;;;;;4924685;28;20464;-82
2021/12/29 10:27:57;;;;;;;;;;;;;;;;;;4929359;28;19926;-82
2021/12/29 10:30:23;;;;;;;;;;;;;;;;;;4920733;28;20385;-82
2021/12/29 10:32:49;;;;;;;;;;;;;;;;;;4925579;28;19919;-82
2021/12/29 10:35:16;;;;;;;;;;;;;;;;;;4921905;28;19927;-81
2021/12/29 10:37:43;;;;;;;;;;;;;;;;;;4930199;28;19933;-82
2021/12/29 10:40:15;;;;;;;;;;;;;;;;;;4916561;28;20025;-82
2021/12/29 10:42:42;;;;;;;;;;;;;;;;;;4928258;28;19918;-82
2021/12/29 10:45:08;;;;;;;;;;;;;;;;;;4922287;28;20017;-82
2021/12/29 10:47:34;;;;;;;;;;;;;;;;;;4918600;28;19935;-82
2021/12/29 10:50:01;;;;;;;;;;;;;;;;;;4935786;28;19922;-82
2021/12/29 10:52:33;;;;;;;;;;;;;;;;;;4915920;28;20350;-82
2021/12/29 10:55:00;;;;;;;;;;;;;;;;;;4929111;28;22922;-82
2021/12/29 10:57:28;;;;;;;;;;;;;;;;;;4909547;28;19918;-81
2021/12/29 10:59:57;;;;;;;;;;;;;;;;;;4942763;28;19923;-82
2021/12/29 11:02:24;;;;;;;;;;;;;;;;;;4919808;28;20342;-81
2021/12/29 11:04:50;;;;;;;;;;;;;;;;;;4925522;28;19997;-82
2021/12/29 11:07:16;;;;;;;;;;;;;;;;;;4921871;28;19930;-81
2021/12/29 11:09:43;;;;;;;;;;;;;;;;;;4932803;28;20018;-81
2021/12/29 11:12:12;;;;;;;;;;;;;;;;;;4928536;28;20286;-82
2021/12/29 11:14:53;;;;;;;;;;;;;;;;;;4919752;28;20025;-82
2021/12/29 11:17:34;;;;;;;;;;;;;;;;;;4926524;28;20436;-80
2021/12/29 11:20:00;;;;;;;;;;;;;;;;;;4936506;28;20396;-81
2021/12/29 11:22:35;;;;;;;;;;;;;;;;;;4930885;28;20072;-79
2021/12/29 11:25:02;;;;;;;;;;;;;;;;;;4928268;28;20318;-80
2021/12/29 11:27:31;;;;;;;;;;;;;;;;;;4904623;28;19930;-79
2021/12/29 11:30:00;;;;;;;;;;;;;;;;;;4930189;28;19934;-79
2021/12/29 11:32:26;;;;;;;;;;;;;;;;;;4922775;28;19914;-79
2021/12/29 11:34:52;;;;;;;;;;;;;;;;;;4930049;28;20013;-78
2021/12/29 11:37:18;;;;;;;;;;;;;;;;;;4926914;28;19926;-79
2021/12/29 11:39:45;;;;;;;;;;;;;;;;;;4931681;28;19926;-78
2021/12/29 11:42:17;;;;;;;;;;;;;;;;;;4945362;28;19927;-77
2021/12/29 11:44:45;;;;;;;;;;;;;;;;;;4909509;28;19931;-80
2021/12/29 11:47:12;;;;;;;;;;;;;;;;;;4923090;28;19930;-79
2021/12/29 11:49:46;;;;;;;;;;;;;;;;;;4922232;28;19954;-81
2021/12/29 11:52:13;;;;;;;;;;;;;;;;;;4927098;28;19923;-79
2021/12/29 11:55:09;;;;;;;;;;;;;;;;;;4934396;28;19922;-80
2021/12/29 11:57:45;;;;;;;;;;;;;;;;;;4883628;28;19922;-79
2021/12/29 12:00:11;;;;;;;;;;;;;;;;;;4931648;28;19926;-80
2021/12/29 12:02:37;;;;;;;;;;;;;;;;;;4928307;28;20288;-80
2021/12/29 12:05:04;;;;;;;;;;;;;;;;;;4918059;28;19926;-80
2021/12/29 12:07:30;;;;;;;;;;;;;;;;;;4925313;28;19930;-79
2021/12/29 12:10:07;;;;;;;;;;;;;;;;;;4918895;29;19977;-79
2021/12/29 12:12:39;;;;;;;;;;;;;;;;;;4924478;28;19925;-79
2021/12/29 12:15:15;;;;;;;;;;;;;;;;;;4922657;28;20275;-80
2021/12/29 12:17:41;;;;;;;;;;;;;;;;;;4927877;28;19930;-80
2021/12/29 12:20:08;;;;;;;;;;;;;;;;;;4912837;29;19918;-81
2021/12/29 12:22:53;;;;;;;;;;;;;;;;;;4925751;28;19953;-80
2021/12/29 12:25:20;;;;;;;;;;;;;;;;;;4907019;28;20013;-79
2021/12/29 12:28:13;;;;;;;;;;;;;;;;;;4909490;28;20398;-81
2021/12/29 12:30:53;;;;;;;;;;;;;;;;;;4884333;29;19919;-81
2021/12/29 12:33:29;;;;;;;;;;;;;;;;;;4907668;28;19933;-81
2021/12/29 12:35:55;;;;;;;;;;;;;;;;;;4893132;29;20390;-82
2021/12/29 12:38:22;;;;;;;;;;;;;;;;;;4875597;29;20286;-82
2021/12/29 12:40:48;;;;;;;;;;;;;;;;;;4863380;29;19930;-80
2021/12/29 12:43:16;;;;;;;;;;;;;;;;;;4860354;29;19918;-81
2021/12/29 12:45:42;;;;;;;;;;;;;;;;;;4878116;29;20033;-80
2021/12/29 12:48:11;;;;;;;;;;;;;;;;;;4878652;29;19924;-85
2021/12/29 12:50:41;;;;;;;;;;;;;;;;;;4892152;29;20002;-81
2021/12/29 12:53:08;;;;;;;;;;;;;;;;;;4878969;29;20361;-82
2021/12/29 12:55:35;;;;;;;;;;;;;;;;;;4887164;29;19947;-81
2021/12/29 12:58:02;;;;;;;;;;;;;;;;;;4863849;29;19923;-80
2021/12/29 13:00:28;;;;;;;;;;;;;;;;;;4897582;29;20019;-81
2021/12/29 13:02:55;;;;;;;;;;;;;;;;;;4878856;29;20512;-79
2021/12/29 13:05:24;;;;;;;;;;;;;;;;;;4893076;29;20013;-81
2021/12/29 13:07:52;;;;;;;;;;;;;;;;;;4906642;28;19935;-79
2021/12/29 13:10:19;;;;;;;;;;;;;;;;;;4923105;28;19922;-80
2021/12/29 13:12:46;;;;;;;;;;;;;;;;;;4923516;28;20342;-80
2021/12/29 13:15:15;;;;;;;;;;;;;;;;;;4927467;28;20018;-81
2021/12/29 13:17:42;;;;;;;;;;;;;;;;;;4948090;28;19997;-81
2021/12/29 13:20:09;;;;;;;;;;;;;;;;;;4914845;28;19938;-81
2021/12/29 13:22:36;;;;;;;;;;;;;;;;;;4919745;28;20286;-79
2021/12/29 13:25:11;;;;;;;;;;;;;;;;;;4930144;28;19956;-80
2021/12/29 13:27:38;;;;;;;;;;;;;;;;;;4926197;28;19926;-80
2021/12/29 13:30:04;;;;;;;;;;;;;;;;;;4930479;28;19922;-79
2021/12/29 13:32:33;;;;;;;;;;;;;;;;;;4925901;28;19931;-79
2021/12/29 13:35:00;;;;;;;;;;;;;;;;;;4917035;28;20290;-79
2021/12/29 13:37:26;;;;;;;;;;;;;;;;;;4925108;28;20348;-79
2021/12/29 13:39:52;;;;;;;;;;;;;;;;;;4910131;29;20017;-78
2021/12/29 13:42:18;;;;;;;;;;;;;;;;;;4923647;28;19970;-78
2021/12/29 13:44:44;;;;;;;;;;;;;;;;;;4931870;28;19954;-76
2021/12/29 13:47:11;;;;;;;;;;;;;;;;;;4940049;28;19930;-79
2021/12/29 13:49:37;;;;;;;;;;;;;;;;;;4915744;28;19957;-79
2021/12/29 13:52:03;;;;;;;;;;;;;;;;;;4929753;28;19958;-79
2021/12/29 13:54:33;;;;;;;;;;;;;;;;;;4928235;28;21046;-80
2021/12/29 13:56:59;;;;;;;;;;;;;;;;;;4910177;28;19927;-79
2021/12/29 13:59:25;;;;;;;;;;;;;;;;;;4925844;28;19938;-79
2021/12/29 14:01:51;;;;;;;;;;;;;;;;;;4927363;28;20045;-79
2021/12/29 14:04:24;;;;;;;;;;;;;;;;;;4905352;28;20360;-80
2021/12/29 14:06:53;;;;;;;;;;;;;;;;;;4929834;28;19945;-80
2021/12/29 14:09:22;;;;;;;;;;;;;;;;;;4914049;28;20404;-80
2021/12/29 14:11:58;;;;;;;;;;;;;;;;;;4907995;28;19926;-80
2021/12/29 14:14:25;;;;;;;;;;;;;;;;;;4918610;28;19964;-81
2021/12/29 14:17:11;;;;;;;;;;;;;;;;;;4925912;28;19918;-80
2021/12/29 14:19:45;;;;;;;;;;;;;;;;;;4912850;28;19950;-82
2021/12/29 14:22:15;;;;;;;;;;;;;;;;;;4912987;28;19948;-83
2021/12/29 14:24:42;;;;;;;;;;;;;;;;;;4902677;28;19943;-82
2021/12/29 14:27:09;;;;;;;;;;;;;;;;;;4929253;28;20274;-79
2021/12/29 14:32:27;;;;;;;;;;;;;;;;;;4910083;28;19929;-83
2021/12/29 14:34:55;;;;;;;;;;;;;;;;;;4919221;28;19919;-79
2021/12/29 14:37:21;;;;;;;;;;;;;;;;;;4909067;28;20368;-80
2021/12/29 14:39:48;;;;;;;;;;;;;;;;;;4890510;28;20025;-79
2021/12/29 14:42:17;;;;;;;;;;;;;;;;;;4872122;29;20062;-84
2021/12/29 14:44:50;;;;;;;;;;;;;;;;;;4869848;29;20039;-80
2021/12/29 14:47:17;;;;;;;;;;;;;;;;;;4866674;28;19926;-79
2021/12/29 14:49:57;;;;;;;;;;;;;;;;;;4901911;29;19926;-81
2021/12/29 14:52:45;;;;;;;;;;;;;;;;;;4890960;29;20001;-81
2021/12/29 14:55:11;;;;;;;;;;;;;;;;;;4888619;29;19927;-81
2021/12/29 14:57:38;;;;;;;;;;;;;;;;;;4885335;29;20025;-81
2021/12/29 15:00:05;;;;;;;;;;;;;;;;;;4911658;29;19918;-81
2021/12/29 15:02:31;;;;;;;;;;;;;;;;;;4884212;29;20009;-81
2021/12/29 15:04:57;;;;;;;;;;;;;;;;;;4898615;29;19918;-81
2021/12/29 15:07:44;;;;;;;;;;;;;;;;;;4892183;29;19919;-81
2021/12/29 15:10:33;;;;;;;;;;;;;;;;;;4869164;29;20018;-81
2021/12/29 15:13:09;;;;;;;;;;;;;;;;;;4898998;29;19919;-80
2021/12/29 15:15:38;;;;;;;;;;;;;;;;;;4886907;29;20080;-80
2021/12/29 15:18:12;;;;;;;;;;;;;;;;;;4892028;29;19922;-81
2021/12/29 15:20:38;;;;;;;;;;;;;;;;;;4896678;29;19962;-81
2021/12/29 15:23:04;;;;;;;;;;;;;;;;;;4884384;29;19976;-80
2021/12/29 15:25:30;;;;;;;;;;;;;;;;;;4888525;29;19994;-81
2021/12/29 15:27:59;;;;;;;;;;;;;;;;;;4883705;29;20035;-80
2021/12/29 15:30:25;;;;;;;;;;;;;;;;;;4871389;29;19918;-80
2021/12/29 15:32:51;;;;;;;;;;;;;;;;;;4904167;29;20382;-80
2021/12/29 15:35:18;;;;;;;;;;;;;;;;;;4890549;29;19927;-80
2021/12/29 15:37:44;;;;;;;;;;;;;;;;;;4892803;29;20320;-80
2021/12/29 15:40:11;;;;;;;;;;;;;;;;;;4890254;29;19966;-80
2021/12/29 15:42:38;;;;;;;;;;;;;;;;;;4904798;28;19927;-80
2021/12/29 15:45:03;;;;;;;;;;;;;;;;;;4932451;28;19926;-80
2021/12/29 15:47:30;;;;;;;;;;;;;;;;;;4927615;28;19922;-79
2021/12/29 15:49:56;;;;;;;;;;;;;;;;;;4926901;28;19926;-79
2021/12/29 15:52:23;;;;;;;;;;;;;;;;;;4941269;28;19930;-79
2021/12/29 15:54:49;;;;;;;;;;;;;;;;;;4932595;28;19926;-79
2021/12/29 15:57:15;;;;;;;;;;;;;;;;;;4931238;28;19978;-80
2021/12/29 15:59:41;;;;;;;;;;;;;;;;;;4931995;28;19922;-81
2021/12/29 16:02:07;;;;;;;;;;;;;;;;;;4934704;28;19926;-80
2021/12/29 16:04:33;;;;;;;;;;;;;;;;;;4945279;28;19926;-80
2021/12/29 16:06:59;;;;;;;;;;;;;;;;;;4939976;28;20423;-80
2021/12/29 16:09:25;;;;;;;;;;;;;;;;;;4933421;28;19933;-80
2021/12/29 16:11:52;;;;;;;;;;;;;;;;;;4937250;28;19970;-80
2021/12/29 16:14:18;;;;;;;;;;;;;;;;;;4944026;28;19927;-79
2021/12/29 16:16:44;;;;;;;;;;;;;;;;;;4947892;28;19926;-79
2021/12/29 16:19:10;;;;;;;;;;;;;;;;;;4945119;28;19926;-79
2021/12/29 16:21:36;;;;;;;;;;;;;;;;;;4934622;28;19978;-80
2021/12/29 16:24:02;;;;;;;;;;;;;;;;;;4937142;28;19922;-81
2021/12/29 16:26:28;;;;;;;;;;;;;;;;;;4929229;28;19969;-79
2021/12/29 16:28:57;;;;;;;;;;;;;;;;;;4933082;28;19930;-80
2021/12/29 16:31:26;;;;;;;;;;;;;;;;;;4929770;28;19974;-79
2021/12/29 16:33:53;;;;;;;;;;;;;;;;;;4913726;28;19981;-80
2021/12/29 16:36:21;;;;;;;;;;;;;;;;;;4924839;28;19925;-79
2021/12/29 16:38:46;;;;;;;;;;;;;;;;;;4933980;28;19930;-79
2021/12/29 16:41:12;;;;;;;;;;;;;;;;;;4913736;28;19973;-79
2021/12/29 16:43:39;;;;;;;;;;;;;;;;;;4929369;28;20687;-79
2021/12/29 16:46:05;;;;;;;;;;;;;;;;;;4927884;28;19922;-80
2021/12/29 16:51:24;;;;;;;;;;;;;;;;;;4929425;28;20375;-79
2021/12/29 16:53:52;;;;;;;;;;;;;;;;;;4919283;28;19942;-79
2021/12/29 16:56:18;;;;;;;;;;;;;;;;;;4917609;28;20610;-80
2021/12/29 16:58:44;;;;;;;;;;;;;;;;;;4919563;28;20378;-79
2021/12/29 17:01:12;;;;;;;;;;;;;;;;;;4920120;28;20021;-79